Time;durP1;ratioP1;P1;durP2;ratioP2;P2;SDS_P1;SDS_P2;PMS_P1;PMS_P2;Temp;Humidity;BMP_temperature;BMP_pressure;BME280_temperature;BME280_humidity;BME280_pressure;Samples;Min_cycle;Max_cycle;Signal;HPM_P1;HPM_P2
2021/09/03 00:00:53;;;;;;;;;;;23.80;51.90;;;;;;1606794;72;739;-60
2021/09/03 00:02:55;;;;;;;;;;;23.80;51.90;;;;;;1597120;72;1089;-59
2021/09/03 00:04:57;;;;;;;;;;;23.80;51.90;;;;;;1592425;73;683;-59
2021/09/03 00:06:59;;;;;;;;;;;23.80;52.00;;;;;;1593703;72;677;-59
2021/09/03 00:09:01;;;;;;;;;;;23.80;52.00;;;;;;1602037;72;693;-59
2021/09/03 00:11:02;;;;;;;;;;;23.80;51.90;;;;;;1602204;72;718;-59
2021/09/03 00:13:04;;;;;;;;;;;23.90;52.10;;;;;;1601482;72;1148;-59
2021/09/03 00:15:07;;;;;;;;;;;23.80;52.10;;;;;;1601848;72;799;-60
2021/09/03 00:17:08;;;;;;;;;;;23.80;52.20;;;;;;1596347;72;1940;-58
2021/09/03 00:19:10;;;;;;;;;;;23.80;52.10;;;;;;1599471;74;652;-58
2021/09/03 00:21:12;;;;;;;;;;;23.90;52.20;;;;;;1596704;73;794;-59
2021/09/03 00:23:15;;;;;;;;;;;23.80;52.10;;;;;;1591680;72;1136;-59
2021/09/03 00:25:17;;;;;;;;;;;23.90;52.00;;;;;;1586527;73;701;-59
2021/09/03 00:27:19;;;;;;;;;;;23.80;51.90;;;;;;1596875;72;686;-60
2021/09/03 00:29:21;;;;;;;;;;;23.80;52.00;;;;;;1602652;72;708;-61
2021/09/03 00:31:23;;;;;;;;;;;23.90;52.00;;;;;;1602012;72;749;-60
2021/09/03 00:33:25;;;;;;;;;;;23.80;51.90;;;;;;1608014;72;1120;-60
2021/09/03 00:35:26;;;;;;;;;;;23.80;51.90;;;;;;1590796;73;772;-60
2021/09/03 00:37:28;;;;;;;;;;;23.80;51.90;;;;;;1599497;72;1930;-59
2021/09/03 00:39:30;;;;;;;;;;;23.80;51.90;;;;;;1590244;72;667;-59
2021/09/03 00:41:32;;;;;;;;;;;23.80;51.90;;;;;;1589293;72;745;-59
2021/09/03 00:43:34;;;;;;;;;;;23.80;51.90;;;;;;1595496;72;1106;-59
2021/09/03 00:45:36;;;;;;;;;;;23.80;51.90;;;;;;1602781;72;716;-60
2021/09/03 00:47:38;;;;;;;;;;;23.80;51.90;;;;;;1594707;72;703;-61
2021/09/03 00:49:39;;;;;;;;;;;23.80;51.90;;;;;;1599826;72;701;-60
2021/09/03 00:51:41;;;;;;;;;;;23.80;51.90;;;;;;1595208;72;723;-59
2021/09/03 00:53:43;;;;;;;;;;;23.80;51.90;;;;;;1610372;72;1135;-59
2021/09/03 00:55:45;;;;;;;;;;;23.70;52.00;;;;;;1596159;72;722;-60
2021/09/03 00:57:48;;;;;;;;;;;23.80;51.90;;;;;;1593580;72;1932;-60
2021/09/03 00:59:53;;;;;;;;;;;23.80;51.90;;;;;;1598378;72;649;-60
2021/09/03 01:01:53;;;;;;;;;;;23.80;51.90;;;;;;1600813;72;1116;-60
2021/09/03 01:03:55;;;;;;;;;;;23.80;51.90;;;;;;1522896;76;1152;-60
2021/09/03 01:06:02;;;;;;;;;;;23.70;52.00;;;;;;1562585;75;685;-60
2021/09/03 01:08:01;;;;;;;;;;;23.80;52.00;;;;;;1570943;74;1641;-59
2021/09/03 01:10:04;;;;;;;;;;;23.70;52.00;;;;;;1561876;74;720;-59
2021/09/03 01:12:06;;;;;;;;;;;23.70;52.00;;;;;;1571054;74;682;-59
2021/09/03 01:14:08;;;;;;;;;;;23.80;52.00;;;;;;1566927;74;1138;-59
2021/09/03 01:16:09;;;;;;;;;;;23.70;52.00;;;;;;1559074;74;687;-59
2021/09/03 01:18:11;;;;;;;;;;;23.80;52.00;;;;;;1558048;74;1938;-60
2021/09/03 01:20:13;;;;;;;;;;;23.70;51.90;;;;;;1563383;74;776;-59
2021/09/03 01:22:15;;;;;;;;;;;23.70;52.00;;;;;;1561664;74;759;-59
2021/09/03 01:24:17;;;;;;;;;;;23.80;51.90;;;;;;1548199;75;1142;-59
2021/09/03 01:26:19;;;;;;;;;;;23.70;51.90;;;;;;1558616;74;665;-59
2021/09/03 01:28:21;;;;;;;;;;;23.70;52.00;;;;;;1567703;74;671;-59
2021/09/03 01:30:23;;;;;;;;;;;23.80;52.00;;;;;;1573631;74;801;-59
2021/09/03 01:32:25;;;;;;;;;;;23.70;51.90;;;;;;1557680;74;794;-59
2021/09/03 01:34:27;;;;;;;;;;;23.70;52.00;;;;;;1561305;74;1149;-59
2021/09/03 01:36:29;;;;;;;;;;;23.70;52.00;;;;;;1565245;74;714;-60
2021/09/03 01:38:31;;;;;;;;;;;23.60;51.90;;;;;;1564601;74;1906;-59
2021/09/03 01:42:37;;;;;;;;;;;23.70;52.10;;;;;;1565057;74;613;-73
2021/09/03 01:44:39;;;;;;;;;;;23.70;52.10;;;;;;1558909;74;725;-70
2021/09/03 01:46:41;;;;;;;;;;;23.70;52.20;;;;;;1554736;74;747;-70
2021/09/03 01:48:45;;;;;;;;;;;23.60;52.10;;;;;;1555431;74;832;-71
2021/09/03 01:50:47;;;;;;;;;;;23.60;52.20;;;;;;1572910;74;1599;-70
2021/09/03 01:52:50;;;;;;;;;;;23.70;52.30;;;;;;1566234;74;921;-71
2021/09/03 01:54:52;;;;;;;;;;;23.70;52.30;;;;;;1590483;74;730;-71
2021/09/03 01:56:55;;;;;;;;;;;23.70;52.40;;;;;;1601026;74;1922;-71
2021/09/03 01:58:57;;;;;;;;;;;23.70;52.40;;;;;;1574097;74;899;-70
2021/09/03 02:01:01;;;;;;;;;;;23.70;52.30;;;;;;1576316;74;1164;-69
2021/09/03 02:03:03;;;;;;;;;;;23.70;52.40;;;;;;1577788;74;1772;-71
2021/09/03 02:05:05;;;;;;;;;;;23.70;52.40;;;;;;1564619;74;763;-69
2021/09/03 02:07:07;;;;;;;;;;;23.60;52.20;;;;;;1584941;74;712;-70
2021/09/03 02:09:09;;;;;;;;;;;23.60;52.20;;;;;;1576045;74;725;-72
2021/09/03 02:11:11;;;;;;;;;;;23.60;52.20;;;;;;1576420;74;1159;-71
2021/09/03 02:13:13;;;;;;;;;;;23.60;52.30;;;;;;1565075;74;750;-72
2021/09/03 02:15:15;;;;;;;;;;;23.60;52.30;;;;;;1577488;74;753;-73
2021/09/03 02:17:17;;;;;;;;;;;23.70;52.60;;;;;;1548384;74;1960;-72
2021/09/03 02:19:18;;;;;;;;;;;23.60;52.60;;;;;;1571266;74;689;-72
2021/09/03 02:21:20;;;;;;;;;;;23.70;52.60;;;;;;1580447;74;1275;-72
2021/09/03 02:23:22;;;;;;;;;;;23.70;52.70;;;;;;1565577;74;873;-72
2021/09/03 02:25:24;;;;;;;;;;;23.70;52.70;;;;;;1565051;74;735;-73
2021/09/03 02:27:26;;;;;;;;;;;23.60;52.60;;;;;;1573919;73;796;-72
2021/09/03 02:29:28;;;;;;;;;;;23.70;52.80;;;;;;1573457;74;743;-69
2021/09/03 02:31:30;;;;;;;;;;;23.60;52.60;;;;;;1570490;74;1176;-73
2021/09/03 02:33:32;;;;;;;;;;;23.60;52.70;;;;;;1563625;74;750;-72
2021/09/03 02:35:33;;;;;;;;;;;23.70;52.80;;;;;;1564351;74;690;-73
2021/09/03 02:37:35;;;;;;;;;;;23.60;52.60;;;;;;1558997;74;1933;-72
2021/09/03 02:39:37;;;;;;;;;;;23.60;52.60;;;;;;1570326;74;742;-71
2021/09/03 02:41:39;;;;;;;;;;;23.70;52.80;;;;;;1556426;74;1134;-72
2021/09/03 02:43:41;;;;;;;;;;;23.60;52.60;;;;;;1558756;74;594;-67
2021/09/03 02:45:43;;;;;;;;;;;23.70;52.80;;;;;;1581885;74;799;-67
2021/09/03 02:47:45;;;;;;;;;;;23.70;52.80;;;;;;1577199;74;764;-67
2021/09/03 02:49:47;;;;;;;;;;;23.70;52.70;;;;;;1570600;74;785;-68
2021/09/03 02:51:48;;;;;;;;;;;23.70;52.80;;;;;;1554810;74;1142;-69
2021/09/03 02:53:50;;;;;;;;;;;23.60;52.60;;;;;;1566533;74;737;-70
2021/09/03 02:55:52;;;;;;;;;;;23.70;52.70;;;;;;1566986;74;716;-71
2021/09/03 02:57:54;;;;;;;;;;;23.70;52.60;;;;;;1549338;74;1943;-71
2021/09/03 02:59:56;;;;;;;;;;;23.70;52.70;;;;;;1555532;74;777;-73
2021/09/03 03:01:58;;;;;;;;;;;23.80;52.80;;;;;;1562973;74;1118;-72
2021/09/03 03:04:00;;;;;;;;;;;23.70;52.90;;;;;;1551556;74;718;-71
2021/09/03 03:06:02;;;;;;;;;;;23.70;52.90;;;;;;1554338;74;753;-75
2021/09/03 03:08:04;;;;;;;;;;;23.70;52.90;;;;;;1552955;74;756;-73
2021/09/03 03:10:06;;;;;;;;;;;23.70;52.90;;;;;;1557459;74;580;-72
2021/09/03 03:12:10;;;;;;;;;;;23.70;52.90;;;;;;1550176;74;1151;-72
2021/09/03 03:14:26;;;;;;;;;;;23.70;52.90;;;;;;1561379;74;687;-73
2021/09/03 03:16:16;;;;;;;;;;;23.70;52.90;;;;;;1549052;74;1676;-71
2021/09/03 03:18:17;;;;;;;;;;;23.60;52.80;;;;;;1557558;74;1937;-71
2021/09/03 03:20:20;;;;;;;;;;;23.60;52.80;;;;;;1560650;74;823;-70
2021/09/03 03:22:22;;;;;;;;;;;23.60;52.70;;;;;;1558721;74;1118;-73
2021/09/03 03:24:24;;;;;;;;;;;23.60;52.70;;;;;;1556934;74;784;-70
2021/09/03 03:26:25;;;;;;;;;;;23.60;52.80;;;;;;1558081;74;777;-71
2021/09/03 03:28:27;;;;;;;;;;;23.70;52.80;;;;;;1561485;74;767;-71
2021/09/03 03:30:29;;;;;;;;;;;23.60;52.70;;;;;;1555343;74;849;-67
2021/09/03 03:32:31;;;;;;;;;;;23.60;52.70;;;;;;1566297;74;1164;-71
2021/09/03 03:34:33;;;;;;;;;;;23.60;52.70;;;;;;1557775;74;844;-68
2021/09/03 03:36:35;;;;;;;;;;;23.60;52.70;;;;;;1559389;74;897;-74
2021/09/03 03:38:37;;;;;;;;;;;23.50;52.70;;;;;;1559238;74;1928;-73
2021/09/03 03:40:39;;;;;;;;;;;23.60;52.70;;;;;;1558378;74;1131;-70
2021/09/03 03:42:40;;;;;;;;;;;23.60;52.80;;;;;;1557985;74;792;-70
2021/09/03 03:44:42;;;;;;;;;;;23.60;52.80;;;;;;1560404;74;717;-70
2021/09/03 03:46:44;;;;;;;;;;;23.60;52.80;;;;;;1558241;74;714;-70
2021/09/03 03:48:46;;;;;;;;;;;23.70;52.90;;;;;;1560037;74;808;-72
2021/09/03 03:50:48;;;;;;;;;;;23.60;52.80;;;;;;1565696;74;1153;-71
2021/09/03 03:52:50;;;;;;;;;;;23.60;52.80;;;;;;1565304;74;763;-72
2021/09/03 03:54:52;;;;;;;;;;;23.60;52.80;;;;;;1564576;74;762;-72
2021/09/03 03:56:53;;;;;;;;;;;23.60;52.90;;;;;;1549461;74;748;-71
2021/09/03 03:58:55;;;;;;;;;;;23.60;52.80;;;;;;1559134;74;1941;-71
2021/09/03 04:00:57;;;;;;;;;;;23.60;52.90;;;;;;1564763;74;1167;-69
2021/09/03 04:02:59;;;;;;;;;;;23.50;52.90;;;;;;1553700;74;801;-70
2021/09/03 04:05:01;;;;;;;;;;;23.60;52.90;;;;;;1554555;74;698;-67
2021/09/03 04:07:03;;;;;;;;;;;23.50;52.90;;;;;;1545135;74;789;-70
2021/09/03 04:09:05;;;;;;;;;;;23.60;53.00;;;;;;1545092;74;801;-69
2021/09/03 04:11:07;;;;;;;;;;;23.60;53.00;;;;;;1566847;74;1145;-69
2021/09/03 04:13:09;;;;;;;;;;;23.60;52.90;;;;;;1565103;74;821;-73
2021/09/03 04:15:11;;;;;;;;;;;23.60;52.90;;;;;;1561456;74;746;-71
2021/09/03 04:17:13;;;;;;;;;;;23.60;52.90;;;;;;1556930;74;726;-71
2021/09/03 04:19:15;;;;;;;;;;;23.50;53.00;;;;;;1551870;74;1943;-72
2021/09/03 04:21:16;;;;;;;;;;;23.60;53.00;;;;;;1550878;74;1150;-75
2021/09/03 04:23:18;;;;;;;;;;;23.60;53.10;;;;;;1558178;74;740;-73
2021/09/03 04:25:20;;;;;;;;;;;23.60;53.00;;;;;;1558085;74;794;-74
2021/09/03 04:27:22;;;;;;;;;;;23.50;53.00;;;;;;1571137;73;712;-72
2021/09/03 04:29:24;;;;;;;;;;;23.60;53.00;;;;;;1562428;74;802;-74
2021/09/03 04:31:26;;;;;;;;;;;23.60;53.10;;;;;;1552002;74;1111;-73
2021/09/03 04:33:28;;;;;;;;;;;23.50;53.00;;;;;;1551241;74;1024;-72
2021/09/03 04:35:29;;;;;;;;;;;23.50;53.10;;;;;;1554709;74;816;-70
2021/09/03 04:37:31;;;;;;;;;;;23.50;53.20;;;;;;1559443;74;819;-72
2021/09/03 04:39:33;;;;;;;;;;;23.50;53.10;;;;;;1568236;74;1931;-71
2021/09/03 04:41:35;;;;;;;;;;;23.50;53.10;;;;;;1556597;74;1130;-72
2021/09/03 04:43:37;;;;;;;;;;;23.50;53.10;;;;;;1563568;74;801;-72
2021/09/03 04:45:39;;;;;;;;;;;23.50;53.10;;;;;;1568762;74;832;-73
2021/09/03 04:47:41;;;;;;;;;;;23.50;53.10;;;;;;1556501;74;656;-72
2021/09/03 04:49:43;;;;;;;;;;;23.50;53.30;;;;;;1556418;74;784;-69
2021/09/03 04:51:44;;;;;;;;;;;23.50;53.20;;;;;;1561271;74;1146;-71
2021/09/03 04:53:47;;;;;;;;;;;23.50;53.20;;;;;;1551000;74;698;-72
2021/09/03 04:55:49;;;;;;;;;;;23.50;53.20;;;;;;1561964;74;756;-72
2021/09/03 04:57:51;;;;;;;;;;;23.50;53.30;;;;;;1560943;74;752;-73
2021/09/03 04:59:53;;;;;;;;;;;23.50;53.40;;;;;;1570472;74;1942;-72
2021/09/03 05:01:55;;;;;;;;;;;23.50;53.30;;;;;;1559899;74;1218;-72
2021/09/03 05:03:57;;;;;;;;;;;23.50;53.40;;;;;;1552305;74;635;-70
2021/09/03 05:05:58;;;;;;;;;;;23.50;53.40;;;;;;1557664;74;756;-71
2021/09/03 05:08:00;;;;;;;;;;;23.50;53.40;;;;;;1564477;74;768;-72
2021/09/03 05:10:03;;;;;;;;;;;23.50;53.40;;;;;;1558343;74;774;-73
2021/09/03 05:12:05;;;;;;;;;;;23.50;53.40;;;;;;1565132;74;1192;-69
2021/09/03 05:14:07;;;;;;;;;;;23.50;53.40;;;;;;1559748;74;771;-70
2021/09/03 05:16:09;;;;;;;;;;;23.40;53.30;;;;;;1561297;74;809;-72
2021/09/03 05:18:11;;;;;;;;;;;23.40;53.20;;;;;;1556774;74;1945;-76
2021/09/03 05:20:13;;;;;;;;;;;23.50;53.40;;;;;;1559378;74;876;-76
2021/09/03 05:22:14;;;;;;;;;;;23.40;53.30;;;;;;1560788;74;1163;-73
2021/09/03 05:24:16;;;;;;;;;;;23.40;53.30;;;;;;1548848;74;721;-70
2021/09/03 05:26:18;;;;;;;;;;;23.40;53.30;;;;;;1564055;74;731;-71
2021/09/03 05:28:20;;;;;;;;;;;23.50;53.60;;;;;;1566063;74;709;-70
2021/09/03 05:30:22;;;;;;;;;;;23.40;53.40;;;;;;1560613;74;801;-72
2021/09/03 05:32:24;;;;;;;;;;;23.40;53.40;;;;;;1566293;73;1085;-73
2021/09/03 05:34:26;;;;;;;;;;;23.40;53.40;;;;;;1561013;74;733;-71
2021/09/03 05:36:28;;;;;;;;;;;23.40;53.40;;;;;;1560541;74;687;-70
2021/09/03 05:38:29;;;;;;;;;;;23.30;53.40;;;;;;1554486;74;1931;-71
2021/09/03 05:40:34;;;;;;;;;;;23.40;53.40;;;;;;1567279;74;791;-70
2021/09/03 05:42:36;;;;;;;;;;;23.30;53.40;;;;;;1562387;74;753;-73
2021/09/03 05:44:38;;;;;;;;;;;23.40;53.40;;;;;;1545950;75;790;-70
2021/09/03 05:46:40;;;;;;;;;;;23.40;53.40;;;;;;1513867;77;757;-70
2021/09/03 05:48:42;;;;;;;;;;;23.40;53.50;;;;;;1541485;76;832;-70
2021/09/03 05:50:44;;;;;;;;;;;23.40;53.50;;;;;;1543805;75;1120;-71
2021/09/03 05:52:46;;;;;;;;;;;23.50;53.60;;;;;;1537601;76;734;-71
2021/09/03 05:54:48;;;;;;;;;;;23.50;53.60;;;;;;1541027;76;770;-70
2021/09/03 05:56:49;;;;;;;;;;;23.40;53.50;;;;;;1537435;76;766;-71
2021/09/03 05:58:51;;;;;;;;;;;23.50;53.60;;;;;;1511495;77;1937;-72
2021/09/03 06:00:53;;;;;;;;;;;23.50;53.60;;;;;;1541894;75;1161;-71
2021/09/03 06:02:55;;;;;;;;;;;23.50;53.60;;;;;;1535015;75;822;-71
2021/09/03 06:04:57;;;;;;;;;;;23.50;53.60;;;;;;1533654;75;732;-71
2021/09/03 06:06:59;;;;;;;;;;;23.50;53.60;;;;;;1531609;75;793;-71
2021/09/03 06:09:01;;;;;;;;;;;23.50;53.60;;;;;;1541777;76;778;-70
2021/09/03 06:11:02;;;;;;;;;;;23.40;53.40;;;;;;1545368;75;1156;-72
2021/09/03 06:13:04;;;;;;;;;;;23.40;53.50;;;;;;1529902;75;608;-71
2021/09/03 06:15:06;;;;;;;;;;;23.50;53.60;;;;;;1534475;76;805;-73
2021/09/03 06:17:08;;;;;;;;;;;23.40;53.40;;;;;;1546594;75;732;-73
2021/09/03 06:19:10;;;;;;;;;;;23.50;53.60;;;;;;1527165;76;1950;-72
2021/09/03 06:21:12;;;;;;;;;;;23.40;53.50;;;;;;1549938;75;1126;-71
2021/09/03 06:23:14;;;;;;;;;;;23.40;53.40;;;;;;1540422;75;772;-70
2021/09/03 06:25:16;;;;;;;;;;;23.50;53.60;;;;;;1545650;75;661;-72
2021/09/03 06:27:18;;;;;;;;;;;23.50;53.60;;;;;;1538394;75;768;-71
2021/09/03 06:31:39;;;;;;;;;;;23.40;53.50;;;;;;1526449;76;1885;-72
2021/09/03 06:33:41;;;;;;;;;;;23.50;53.60;;;;;;1533837;75;781;-73
2021/09/03 06:35:43;;;;;;;;;;;23.40;53.40;;;;;;1535017;75;719;-71
2021/09/03 06:37:45;;;;;;;;;;;23.40;53.50;;;;;;1537901;75;721;-72
2021/09/03 06:39:47;;;;;;;;;;;23.50;53.60;;;;;;1557098;75;1949;-72
2021/09/03 06:41:49;;;;;;;;;;;23.50;53.60;;;;;;1541209;75;1134;-71
2021/09/03 06:43:51;;;;;;;;;;;23.50;53.60;;;;;;1538459;75;769;-73
2021/09/03 06:45:52;;;;;;;;;;;23.50;53.60;;;;;;1555392;75;699;-74
2021/09/03 06:47:54;;;;;;;;;;;23.40;53.50;;;;;;1553070;75;727;-74
2021/09/03 06:49:56;;;;;;;;;;;23.40;53.60;;;;;;1548727;75;739;-73
2021/09/03 06:51:58;;;;;;;;;;;23.50;53.70;;;;;;1554364;75;1140;-70
2021/09/03 06:54:00;;;;;;;;;;;23.40;53.60;;;;;;1548666;75;817;-73
2021/09/03 06:56:02;;;;;;;;;;;23.50;53.80;;;;;;1547705;76;714;-72
2021/09/03 06:58:04;;;;;;;;;;;23.40;53.60;;;;;;1550517;75;729;-72
2021/09/03 07:00:06;;;;;;;;;;;23.50;53.80;;;;;;1544921;76;1929;-74
2021/09/03 07:02:08;;;;;;;;;;;23.40;53.60;;;;;;1544536;76;1172;-71
2021/09/03 07:04:10;;;;;;;;;;;23.50;53.70;;;;;;1544722;75;726;-71
2021/09/03 07:06:12;;;;;;;;;;;23.50;53.60;;;;;;1539563;76;613;-72
2021/09/03 07:08:13;;;;;;;;;;;23.50;53.40;;;;;;1531263;75;783;-73
2021/09/03 07:10:15;;;;;;;;;;;23.50;53.20;;;;;;1531878;76;719;-70
2021/09/03 07:12:17;;;;;;;;;;;23.50;53.10;;;;;;1543552;75;1115;-71
2021/09/03 07:14:19;;;;;;;;;;;23.40;52.90;;;;;;1542065;75;762;-71
2021/09/03 07:16:21;;;;;;;;;;;23.50;52.90;;;;;;1541209;75;782;-72
2021/09/03 07:18:23;;;;;;;;;;;23.50;52.80;;;;;;1538971;76;808;-71
2021/09/03 07:20:25;;;;;;;;;;;23.50;52.70;;;;;;1535536;76;1953;-72
2021/09/03 07:22:27;;;;;;;;;;;23.40;52.40;;;;;;1543078;76;1126;-72
2021/09/03 07:24:29;;;;;;;;;;;23.50;52.50;;;;;;1544548;75;769;-69
2021/09/03 07:26:31;;;;;;;;;;;23.50;52.50;;;;;;1549529;75;782;-69
2021/09/03 07:28:33;;;;;;;;;;;23.50;52.40;;;;;;1543433;75;789;-69
2021/09/03 07:30:34;;;;;;;;;;;23.40;52.10;;;;;;1540335;75;1123;-69
2021/09/03 07:32:36;;;;;;;;;;;23.40;52.20;;;;;;1543583;75;747;-69
2021/09/03 07:34:38;;;;;;;;;;;23.40;52.10;;;;;;1543683;75;734;-69
2021/09/03 07:36:40;;;;;;;;;;;23.50;52.20;;;;;;1537227;75;717;-69
2021/09/03 07:38:42;;;;;;;;;;;23.40;52.00;;;;;;1510326;77;796;-69
2021/09/03 07:43:07;;;;;;;;;;;23.40;51.90;;;;;;1572148;74;709;-66
2021/09/03 07:45:09;;;;;;;;;;;23.50;52.00;;;;;;1573160;74;695;-63
2021/09/03 07:47:11;;;;;;;;;;;23.50;52.00;;;;;;1571371;74;678;-66
2021/09/03 07:49:13;;;;;;;;;;;23.40;51.80;;;;;;1571872;74;725;-66
2021/09/03 07:51:15;;;;;;;;;;;23.50;51.90;;;;;;1569673;74;1205;-66
2021/09/03 07:53:17;;;;;;;;;;;23.50;51.80;;;;;;1547119;75;664;-65
2021/09/03 07:55:19;;;;;;;;;;;23.50;51.70;;;;;;1548718;75;770;-67
2021/09/03 07:57:21;;;;;;;;;;;23.50;51.60;;;;;;1547035;75;655;-67
2021/09/03 07:59:23;;;;;;;;;;;23.60;51.50;;;;;;1547923;75;1921;-66
2021/09/03 08:01:25;;;;;;;;;;;23.50;51.50;;;;;;1548973;75;1131;-67
2021/09/03 08:03:27;;;;;;;;;;;23.60;51.50;;;;;;1547188;75;737;-65
2021/09/03 08:05:29;;;;;;;;;;;23.50;51.50;;;;;;1548201;75;776;-66
2021/09/03 08:07:31;;;;;;;;;;;23.50;51.50;;;;;;1555548;75;841;-67
2021/09/03 08:09:32;;;;;;;;;;;23.50;51.50;;;;;;1546023;75;789;-66
2021/09/03 08:11:34;;;;;;;;;;;23.50;51.40;;;;;;1545261;75;1112;-65
2021/09/03 08:13:36;;;;;;;;;;;23.60;51.40;;;;;;1547534;75;765;-65
2021/09/03 08:15:38;;;;;;;;;;;23.50;51.40;;;;;;1548217;75;690;-66
2021/09/03 08:17:40;;;;;;;;;;;23.60;51.30;;;;;;1552170;75;710;-67
2021/09/03 08:19:42;;;;;;;;;;;23.60;51.20;;;;;;1547509;75;1933;-66
2021/09/03 08:21:44;;;;;;;;;;;23.60;51.20;;;;;;1552038;75;1127;-66
2021/09/03 08:23:45;;;;;;;;;;;23.60;51.10;;;;;;1531121;76;788;-66
2021/09/03 08:25:47;;;;;;;;;;;23.60;51.10;;;;;;1513031;77;725;-66
2021/09/03 08:27:49;;;;;;;;;;;23.60;51.10;;;;;;1522816;77;775;-66
2021/09/03 08:29:51;;;;;;;;;;;23.60;51.10;;;;;;1519421;77;773;-66
2021/09/03 08:31:53;;;;;;;;;;;23.60;51.10;;;;;;1517465;77;1128;-66
2021/09/03 08:33:55;;;;;;;;;;;23.60;51.10;;;;;;1509668;77;715;-67
2021/09/03 08:35:57;;;;;;;;;;;23.60;51.00;;;;;;1560579;75;614;-68
2021/09/03 08:37:59;;;;;;;;;;;23.70;51.10;;;;;;1561396;75;724;-64
2021/09/03 08:40:01;;;;;;;;;;;23.70;51.10;;;;;;1534386;75;1933;-66
2021/09/03 08:42:03;;;;;;;;;;;23.70;51.10;;;;;;1527926;76;1175;-66
2021/09/03 08:44:04;;;;;;;;;;;23.70;51.00;;;;;;1522579;77;667;-65
2021/09/03 08:46:07;;;;;;;;;;;23.70;51.00;;;;;;1585410;74;711;-66
2021/09/03 08:48:08;;;;;;;;;;;23.70;51.00;;;;;;1592118;73;753;-65
2021/09/03 08:50:11;;;;;;;;;;;23.70;50.90;;;;;;1571482;74;743;-67
2021/09/03 08:52:13;;;;;;;;;;;23.70;51.00;;;;;;1578527;73;1145;-66
2021/09/03 08:54:15;;;;;;;;;;;23.70;51.00;;;;;;1597267;74;759;-68
2021/09/03 08:56:18;;;;;;;;;;;23.70;50.90;;;;;;1577300;74;731;-68
2021/09/03 08:58:20;;;;;;;;;;;23.70;51.00;;;;;;1598928;73;657;-68
2021/09/03 09:00:25;;;;;;;;;;;23.70;51.00;;;;;;1588386;73;1938;-68
2021/09/03 09:02:27;;;;;;;;;;;23.70;51.00;;;;;;1589913;73;1112;-68
2021/09/03 09:04:29;;;;;;;;;;;23.70;50.90;;;;;;1577052;74;704;-69
2021/09/03 09:06:31;;;;;;;;;;;23.80;51.00;;;;;;1547584;75;1262;-68
2021/09/03 09:08:33;;;;;;;;;;;23.80;50.90;;;;;;1581192;73;730;-68
2021/09/03 09:10:36;;;;;;;;;;;23.80;51.00;;;;;;1583829;74;748;-67
2021/09/03 09:12:40;;;;;;;;;;;23.80;51.10;;;;;;1576217;73;1213;-66
2021/09/03 09:15:01;;;;;;;;;;;23.80;51.30;;;;;;1587251;73;1080;-67
2021/09/03 09:17:03;;;;;;;;;;;23.80;51.30;;;;;;1585797;73;730;-67
2021/09/03 09:19:05;;;;;;;;;;;23.90;51.60;;;;;;1591444;73;720;-67
2021/09/03 09:21:08;;;;;;;;;;;23.80;51.50;;;;;;1584770;73;1914;-67
2021/09/03 09:23:10;;;;;;;;;;;23.90;51.50;;;;;;1585309;73;703;-72
2021/09/03 09:25:22;;;;;;;;;;;23.90;51.60;;;;;;1587891;73;673;-67
2021/09/03 09:27:27;;;;;;;;;;;23.90;51.50;;;;;;1596714;74;1687;-68
2021/09/03 09:29:35;;;;;;;;;;;24.00;51.50;;;;;;1592610;73;664;-68
2021/09/03 09:31:37;;;;;;;;;;;23.90;51.40;;;;;;1573691;73;1693;-69
2021/09/03 09:33:41;;;;;;;;;;;23.90;51.50;;;;;;1585421;73;780;-71
2021/09/03 09:35:52;;;;;;;;;;;24.00;51.00;;;;;;1583235;73;1889;-71
2021/09/03 09:37:54;;;;;;;;;;;23.90;49.60;;;;;;1591187;74;724;-70
2021/09/03 09:39:57;;;;;;;;;;;23.90;50.30;;;;;;1573353;73;1940;-69
2021/09/03 09:41:59;;;;;;;;;;;23.80;49.70;;;;;;1580155;73;1159;-70
2021/09/03 09:44:01;;;;;;;;;;;23.80;49.60;;;;;;1582957;74;811;-71
2021/09/03 09:46:17;;;;;;;;;;;23.90;50.00;;;;;;1582690;74;738;-67
2021/09/03 09:48:19;;;;;;;;;;;23.80;49.40;;;;;;1590586;73;853;-69
2021/09/03 09:50:27;;;;;;;;;;;23.70;49.50;;;;;;1579858;73;772;-70
2021/09/03 09:52:36;;;;;;;;;;;23.70;49.70;;;;;;1586401;73;1149;-69
2021/09/03 09:54:37;;;;;;;;;;;23.70;49.00;;;;;;1595709;73;693;-69
2021/09/03 09:56:46;;;;;;;;;;;23.70;49.50;;;;;;1587030;73;699;-69
2021/09/03 09:58:53;;;;;;;;;;;23.70;49.60;;;;;;1586075;73;722;-71
2021/09/03 10:00:54;;;;;;;;;;;23.70;49.80;;;;;;1587201;73;1926;-70
2021/09/03 10:02:56;;;;;;;;;;;23.60;49.20;;;;;;1584828;73;705;-71
2021/09/03 10:04:58;;;;;;;;;;;23.60;49.30;;;;;;1596623;74;774;-68
2021/09/03 10:07:01;;;;;;;;;;;23.70;49.50;;;;;;1584224;74;742;-69
2021/09/03 10:09:03;;;;;;;;;;;23.60;49.20;;;;;;1580856;73;783;-71
2021/09/03 10:11:05;;;;;;;;;;;23.50;48.60;;;;;;1583177;73;1137;-69
2021/09/03 10:13:07;;;;;;;;;;;23.70;49.30;;;;;;1589272;73;670;-69
2021/09/03 10:15:09;;;;;;;;;;;23.70;49.20;;;;;;1586973;73;712;-67
2021/09/03 10:17:12;;;;;;;;;;;23.60;47.90;;;;;;1585841;73;733;-70
2021/09/03 10:19:15;;;;;;;;;;;23.60;48.80;;;;;;1596189;73;776;-69
2021/09/03 10:21:16;;;;;;;;;;;23.50;47.70;;;;;;1583848;73;1934;-69
2021/09/03 10:23:32;;;;;;;;;;;23.60;48.50;;;;;;1559110;75;1235;-70
2021/09/03 10:25:35;;;;;;;;;;;23.50;48.40;;;;;;1588051;73;1041;-69
2021/09/03 10:27:37;;;;;;;;;;;23.40;47.80;;;;;;1578711;73;1164;-68
2021/09/03 10:29:46;;;;;;;;;;;23.50;48.70;;;;;;1585420;73;792;-68
2021/09/03 10:32:07;;;;;;;;;;;23.40;48.50;;;;;;1596256;74;1926;-65
2021/09/03 10:34:10;;;;;;;;;;;23.40;48.40;;;;;;1586847;74;695;-69
2021/09/03 10:36:12;;;;;;;;;;;23.30;48.50;;;;;;1552549;75;679;-69
2021/09/03 10:38:29;;;;;;;;;;;23.30;48.90;;;;;;1579589;73;818;-69
2021/09/03 10:40:38;;;;;;;;;;;23.30;49.00;;;;;;1586901;73;1922;-69
2021/09/03 10:42:45;;;;;;;;;;;23.40;48.90;;;;;;1586045;74;1136;-69
2021/09/03 10:45:04;;;;;;;;;;;23.40;48.70;;;;;;1589406;73;701;-69
2021/09/03 10:47:07;;;;;;;;;;;23.40;49.10;;;;;;1580866;73;757;-69
2021/09/03 10:49:10;;;;;;;;;;;23.40;48.70;;;;;;1593098;73;1139;-69
2021/09/03 10:51:12;;;;;;;;;;;23.40;48.60;;;;;;1582357;74;1106;-69
2021/09/03 10:53:15;;;;;;;;;;;23.30;48.80;;;;;;1593564;73;796;-71
2021/09/03 10:55:17;;;;;;;;;;;23.30;48.60;;;;;;1583808;73;686;-71
2021/09/03 10:57:20;;;;;;;;;;;23.30;49.30;;;;;;1585033;73;793;-70
2021/09/03 10:59:22;;;;;;;;;;;23.40;49.20;;;;;;1587968;73;764;-70
2021/09/03 11:01:26;;;;;;;;;;;23.50;49.30;;;;;;1586910;73;1934;-69
2021/09/03 11:03:39;;;;;;;;;;;23.50;49.30;;;;;;1582479;73;831;-69
2021/09/03 11:05:41;;;;;;;;;;;23.50;49.20;;;;;;1586016;73;698;-68
2021/09/03 11:07:43;;;;;;;;;;;23.50;49.20;;;;;;1589387;73;719;-69
2021/09/03 11:09:46;;;;;;;;;;;23.50;49.20;;;;;;1589388;73;671;-68
2021/09/03 11:11:49;;;;;;;;;;;23.60;48.90;;;;;;1582085;73;1138;-68
2021/09/03 11:13:52;;;;;;;;;;;23.40;49.00;;;;;;1587553;74;604;-69
2021/09/03 11:15:54;;;;;;;;;;;23.40;49.00;;;;;;1593433;73;663;-70
2021/09/03 11:17:56;;;;;;;;;;;23.40;49.20;;;;;;1603205;73;717;-69
2021/09/03 11:19:59;;;;;;;;;;;23.40;49.50;;;;;;1603011;73;724;-69
2021/09/03 11:22:12;;;;;;;;;;;23.50;49.40;;;;;;1600327;73;1924;-69
2021/09/03 11:24:15;;;;;;;;;;;23.50;49.70;;;;;;1599030;73;757;-70
2021/09/03 11:26:17;;;;;;;;;;;23.50;49.80;;;;;;1592410;73;705;-68
2021/09/03 11:28:19;;;;;;;;;;;23.50;49.80;;;;;;1587741;73;762;-69
2021/09/03 11:30:20;;;;;;;;;;;23.50;49.90;;;;;;1589838;73;797;-70
2021/09/03 11:32:23;;;;;;;;;;;23.60;49.70;;;;;;1593630;73;1128;-67
2021/09/03 11:34:43;;;;;;;;;;;23.50;50.20;;;;;;1585752;73;685;-70
2021/09/03 11:36:47;;;;;;;;;;;23.60;49.70;;;;;;1582706;73;730;-70
2021/09/03 11:38:55;;;;;;;;;;;23.60;49.80;;;;;;1590129;74;708;-70
2021/09/03 11:40:57;;;;;;;;;;;23.70;49.70;;;;;;1590999;73;1921;-69
2021/09/03 11:42:59;;;;;;;;;;;23.70;49.50;;;;;;1567666;74;999;-71
2021/09/03 11:45:03;;;;;;;;;;;23.80;49.40;;;;;;1583753;73;775;-70
2021/09/03 11:47:05;;;;;;;;;;;23.80;49.40;;;;;;1595122;73;732;-71
2021/09/03 11:49:07;;;;;;;;;;;23.70;49.40;;;;;;1594224;73;737;-71
2021/09/03 11:51:10;;;;;;;;;;;23.70;48.90;;;;;;1582424;73;1193;-70
2021/09/03 11:53:19;;;;;;;;;;;23.70;49.20;;;;;;1590227;74;1593;-71
2021/09/03 11:55:21;;;;;;;;;;;23.60;49.00;;;;;;1597216;73;721;-68
2021/09/03 11:57:24;;;;;;;;;;;23.60;49.30;;;;;;1592944;73;723;-69
2021/09/03 11:59:25;;;;;;;;;;;23.50;49.40;;;;;;1587521;73;805;-69
2021/09/03 12:01:27;;;;;;;;;;;23.50;49.30;;;;;;1589988;73;1930;-68
2021/09/03 12:03:31;;;;;;;;;;;23.60;49.30;;;;;;1589774;73;801;-67
2021/09/03 12:05:33;;;;;;;;;;;23.50;49.10;;;;;;1590387;73;769;-69
2021/09/03 12:07:35;;;;;;;;;;;23.50;49.20;;;;;;1588289;74;697;-69
2021/09/03 12:09:36;;;;;;;;;;;23.40;48.90;;;;;;1588954;74;778;-73
2021/09/03 12:11:39;;;;;;;;;;;23.30;48.90;;;;;;1586483;73;1145;-69
2021/09/03 12:13:42;;;;;;;;;;;23.40;49.20;;;;;;1589994;73;726;-69
2021/09/03 12:15:45;;;;;;;;;;;23.40;49.40;;;;;;1589122;74;754;-69
2021/09/03 12:17:47;;;;;;;;;;;23.50;49.10;;;;;;1581299;74;807;-70